createdAt,value
2018-01-30T00:00:47.963Z,990.41
2018-01-30T00:01:47.914Z,990.46
2018-01-30T00:02:47.954Z,990.47
2018-01-30T00:03:47.897Z,990.52
2018-01-30T00:04:47.786Z,990.60
2018-01-30T00:05:47.741Z,990.70
2018-01-30T00:06:47.726Z,990.67
2018-01-30T00:07:47.682Z,990.72
2018-01-30T00:08:47.619Z,990.79
2018-01-30T00:09:47.598Z,990.91
2018-01-30T00:10:47.525Z,990.84
2018-01-30T00:11:47.504Z,990.80
2018-01-30T00:12:47.455Z,990.84
2018-01-30T00:13:47.389Z,990.84
2018-01-30T00:14:47.354Z,990.93
2018-01-30T00:15:47.306Z,990.99
2018-01-30T00:16:47.267Z,991.01
2018-01-30T00:17:47.221Z,991.05
2018-01-30T00:18:47.196Z,991.04
2018-01-30T00:19:47.141Z,991.03
2018-01-30T00:20:47.092Z,991.05
2018-01-30T00:21:47.059Z,991.06
2018-01-30T00:22:47.012Z,991.07
2018-01-30T00:23:46.977Z,991.22
2018-01-30T00:24:46.917Z,991.13
2018-01-30T00:25:46.885Z,991.25
2018-01-30T00:26:46.830Z,991.23
2018-01-30T00:27:46.795Z,991.32
2018-01-30T00:28:46.771Z,991.29
2018-01-30T00:29:46.709Z,991.23
2018-01-30T00:30:46.688Z,991.28
2018-01-30T00:31:46.640Z,991.31
2018-01-30T00:32:46.579Z,991.37
2018-01-30T00:33:46.535Z,991.34
2018-01-30T00:34:46.494Z,991.36
2018-01-30T00:35:46.440Z,991.32
2018-01-30T00:36:46.423Z,991.36
2018-01-30T00:37:46.358Z,991.29
2018-01-30T00:38:46.348Z,991.28
2018-01-30T00:39:46.279Z,991.30
2018-01-30T00:40:46.230Z,991.31
2018-01-30T00:41:46.219Z,991.24
2018-01-30T00:42:46.162Z,991.36
2018-01-30T00:43:46.118Z,991.38
2018-01-30T00:44:46.058Z,991.45
2018-01-30T00:45:46.027Z,991.47
2018-01-30T00:46:45.968Z,991.51
2018-01-30T00:47:45.920Z,991.47
2018-01-30T00:48:45.916Z,991.55
2018-01-30T00:49:45.855Z,991.61
2018-01-30T00:50:45.799Z,991.63
2018-01-30T00:51:45.750Z,991.67
2018-01-30T00:52:45.723Z,991.57
2018-01-30T00:53:45.680Z,991.54
2018-01-30T00:54:45.645Z,991.58
2018-01-30T00:55:45.610Z,991.68
2018-01-30T00:56:45.537Z,991.52
2018-01-30T00:57:45.491Z,991.54
2018-01-30T00:58:45.443Z,991.61
2018-01-30T00:59:45.426Z,991.63
2018-01-30T01:00:45.382Z,991.71
2018-01-30T01:01:45.335Z,991.71
2018-01-30T01:02:45.266Z,991.70
2018-01-30T01:03:45.226Z,991.75
2018-01-30T01:04:45.192Z,991.76
2018-01-30T01:05:45.138Z,991.79
2018-01-30T01:06:45.105Z,991.76
2018-01-30T01:07:45.057Z,991.82
2018-01-30T01:08:45.034Z,991.88
2018-01-30T01:09:45.029Z,991.79
2018-01-30T01:10:44.936Z,991.83
2018-01-30T01:11:44.869Z,991.89
2018-01-30T01:12:44.834Z,991.83
2018-01-30T01:13:44.787Z,991.81
2018-01-30T01:14:44.762Z,991.84
2018-01-30T01:15:54.003Z,991.80
2018-01-30T01:17:38.539Z,991.92
2018-01-30T01:18:38.173Z,991.94
2018-01-30T01:20:32.636Z,991.92
2018-01-30T01:21:32.714Z,991.98
2018-01-30T01:23:25.663Z,991.98
2018-01-30T01:24:25.574Z,991.98
2018-01-30T01:26:19.160Z,992.02
2018-01-30T01:27:18.559Z,992.06
2018-01-30T01:29:11.609Z,992.06
2018-01-30T01:30:11.906Z,992.03
2018-01-30T01:32:05.963Z,992.06
2018-01-30T01:33:05.945Z,992.13
2018-01-30T01:34:59.287Z,992.21
2018-01-30T01:35:58.963Z,992.21
2018-01-30T01:37:51.938Z,992.19
2018-01-30T01:38:51.757Z,992.30
2018-01-30T01:40:44.863Z,992.32
2018-01-30T01:41:44.910Z,992.39
2018-01-30T01:43:37.804Z,992.41
2018-01-30T01:44:37.750Z,992.45
2018-01-30T01:46:31.330Z,992.53
2018-01-30T01:47:31.147Z,992.58
2018-01-30T01:49:24.327Z,992.64
2018-01-30T01:50:23.991Z,992.67
2018-01-30T01:52:17.306Z,992.71
2018-01-30T01:53:17.110Z,992.71
2018-01-30T01:55:10.196Z,992.73
2018-01-30T01:56:09.971Z,992.73
2018-01-30T01:58:04.067Z,992.76
2018-01-30T01:59:03.935Z,992.71
2018-01-30T02:00:58.589Z,992.71
2018-01-30T02:01:58.316Z,992.71
2018-01-30T02:03:51.514Z,992.72
2018-01-30T02:04:51.942Z,992.65
2018-01-30T02:06:44.515Z,992.71
2018-01-30T02:07:44.141Z,992.70
2018-01-30T02:09:37.449Z,992.74
2018-01-30T02:10:38.066Z,992.79
2018-01-30T02:12:30.919Z,992.88
2018-01-30T02:13:30.258Z,992.82
2018-01-30T02:15:23.238Z,992.85
2018-01-30T02:16:23.211Z,992.87
2018-01-30T02:18:16.312Z,992.89
2018-01-30T02:19:16.493Z,992.85
2018-01-30T02:21:09.331Z,992.81
2018-01-30T02:22:09.003Z,992.83
2018-01-30T02:24:02.237Z,992.80
2018-01-30T02:25:01.987Z,992.85
2018-01-30T02:26:55.151Z,992.83
2018-01-30T02:27:55.089Z,992.91
2018-01-30T02:29:49.754Z,992.85
2018-01-30T02:30:49.363Z,992.87
2018-01-30T02:32:42.652Z,992.96
2018-01-30T02:33:42.287Z,992.96
2018-01-30T02:35:37.121Z,992.99
2018-01-30T02:36:36.972Z,992.99
2018-01-30T02:38:30.618Z,993.03
2018-01-30T02:39:30.388Z,993.03
2018-01-30T02:41:24.042Z,993.07
2018-01-30T02:42:23.138Z,992.97
2018-01-30T02:44:18.043Z,993.02
2018-01-30T02:45:17.763Z,993.04
2018-01-30T02:47:10.924Z,993.11
2018-01-30T02:48:10.668Z,993.06
2018-01-30T02:50:04.411Z,993.05
2018-01-30T02:51:04.088Z,993.18
2018-01-30T02:52:57.892Z,993.10
2018-01-30T02:53:57.654Z,993.09
2018-01-30T02:55:50.923Z,993.16
2018-01-30T02:56:50.685Z,993.19
2018-01-30T02:58:45.323Z,993.10
2018-01-30T02:59:45.212Z,993.12
2018-01-30T03:01:38.837Z,993.12
2018-01-30T03:02:38.017Z,993.15
2018-01-30T03:04:31.728Z,993.23
2018-01-30T03:05:31.293Z,993.18
2018-01-30T03:07:25.764Z,993.18
2018-01-30T03:08:25.496Z,993.13
2018-01-30T03:10:18.725Z,993.12
2018-01-30T03:11:18.519Z,993.19
2018-01-30T03:13:11.650Z,993.13
2018-01-30T03:14:11.490Z,993.18
2018-01-30T03:16:04.572Z,993.22
2018-01-30T03:17:04.318Z,993.21
2018-01-30T03:18:57.570Z,993.16
2018-01-30T03:19:57.398Z,993.18
2018-01-30T03:21:50.417Z,993.19
2018-01-30T03:22:50.334Z,993.19
2018-01-30T03:24:43.469Z,993.17
2018-01-30T03:25:43.233Z,993.16
2018-01-30T03:27:36.451Z,993.22
2018-01-30T03:28:36.231Z,993.18
2018-01-30T03:30:29.893Z,993.20
2018-01-30T03:31:29.814Z,993.18
2018-01-30T03:33:22.308Z,993.16
2018-01-30T03:34:22.136Z,993.16
2018-01-30T03:36:16.855Z,993.17
2018-01-30T03:37:16.692Z,993.17
2018-01-30T03:39:10.236Z,993.20
2018-01-30T03:40:09.631Z,993.18
2018-01-30T03:42:02.752Z,993.14
2018-01-30T03:43:02.666Z,993.17
2018-01-30T03:44:57.724Z,993.24
2018-01-30T03:45:57.099Z,993.19
2018-01-30T03:47:50.168Z,993.24
2018-01-30T03:48:50.042Z,993.22
2018-01-30T03:50:43.080Z,993.19
2018-01-30T03:51:42.884Z,993.22
2018-01-30T03:53:36.890Z,993.22
2018-01-30T03:54:36.236Z,993.22
2018-01-30T03:56:29.512Z,993.24
2018-01-30T03:57:29.260Z,993.18
2018-01-30T03:59:22.909Z,993.14
2018-01-30T04:00:22.747Z,993.18
2018-01-30T04:02:15.899Z,993.27
2018-01-30T04:03:15.612Z,993.20
2018-01-30T04:05:10.874Z,993.23
2018-01-30T04:06:10.220Z,993.26
2018-01-30T04:08:03.330Z,993.29
2018-01-30T04:09:03.138Z,993.35
2018-01-30T04:10:56.349Z,993.32
2018-01-30T04:11:56.133Z,993.35
2018-01-30T04:13:50.379Z,993.44
2018-01-30T04:14:49.661Z,993.42
2018-01-30T04:16:42.841Z,993.48
2018-01-30T04:17:42.731Z,993.44
2018-01-30T04:19:35.758Z,993.45
2018-01-30T04:20:35.610Z,993.42
2018-01-30T04:22:28.728Z,993.43
2018-01-30T04:23:28.733Z,993.46
2018-01-30T04:25:21.696Z,993.49
2018-01-30T04:26:21.530Z,993.49
2018-01-30T04:28:15.627Z,993.50
2018-01-30T04:29:14.875Z,993.51
2018-01-30T04:31:08.057Z,993.48
2018-01-30T04:32:08.177Z,993.51
2018-01-30T04:34:01.825Z,993.55
2018-01-30T04:35:00.969Z,993.56
2018-01-30T04:36:01.451Z,993.53
2018-01-30T04:37:01.349Z,993.58
2018-01-30T04:38:01.835Z,993.59
2018-01-30T04:39:01.272Z,993.56
2018-01-30T04:40:01.299Z,993.62
2018-01-30T04:41:01.114Z,993.63
2018-01-30T04:42:00.673Z,993.59
2018-01-30T04:43:00.619Z,993.63
2018-01-30T04:44:00.502Z,993.56
2018-01-30T04:45:01.342Z,993.51
2018-01-30T04:46:01.345Z,993.54
2018-01-30T04:47:00.461Z,993.57
2018-01-30T04:48:01.822Z,993.58
2018-01-30T04:49:00.839Z,993.57
2018-01-30T04:50:01.807Z,993.53
2018-01-30T04:51:00.697Z,993.53
2018-01-30T04:52:00.654Z,993.50
2018-01-30T04:53:00.181Z,993.48
2018-01-30T04:54:00.643Z,993.48
2018-01-30T04:55:00.091Z,993.45
2018-01-30T04:56:00.557Z,993.46
2018-01-30T04:57:00.508Z,993.51
2018-01-30T04:58:00.450Z,993.53
2018-01-30T04:59:00.820Z,993.55
2018-01-30T05:00:00.372Z,993.57
2018-01-30T05:00:59.813Z,993.56
2018-01-30T05:02:00.260Z,993.56
2018-01-30T05:03:00.254Z,993.49
2018-01-30T05:04:00.212Z,993.51
2018-01-30T05:05:00.164Z,993.54
2018-01-30T05:06:00.648Z,993.59
2018-01-30T05:07:00.064Z,993.56
2018-01-30T05:07:59.956Z,993.52
2018-01-30T05:08:59.403Z,993.54
2018-01-30T05:10:00.328Z,993.57
2018-01-30T05:10:59.842Z,993.63
2018-01-30T05:11:59.779Z,993.63
2018-01-30T05:13:00.327Z,993.59
2018-01-30T05:13:59.229Z,993.61
2018-01-30T05:14:59.687Z,993.63
2018-01-30T05:15:59.673Z,993.67
2018-01-30T05:16:59.813Z,993.70
2018-01-30T05:17:59.847Z,993.69
2018-01-30T05:18:59.504Z,993.71
2018-01-30T05:19:59.816Z,993.75
2018-01-30T05:20:59.415Z,993.75
2018-01-30T05:22:00.290Z,993.79
2018-01-30T05:23:00.330Z,993.77
2018-01-30T05:23:59.804Z,993.83
2018-01-30T05:24:58.786Z,993.74
2018-01-30T05:25:59.767Z,993.73
2018-01-30T05:26:59.325Z,993.69
2018-01-30T05:27:58.576Z,993.73
2018-01-30T05:28:59.021Z,993.72
2018-01-30T05:29:59.298Z,993.72
2018-01-30T05:30:58.450Z,993.74
2018-01-30T05:31:58.924Z,993.71
2018-01-30T05:32:58.366Z,993.77
2018-01-30T05:33:59.807Z,993.76
2018-01-30T05:34:58.776Z,993.78
2018-01-30T05:35:58.694Z,993.81
2018-01-30T05:36:58.274Z,993.80
2018-01-30T05:37:58.611Z,993.91
2018-01-30T05:38:58.597Z,993.91
2018-01-30T05:39:58.540Z,993.90
2018-01-30T05:41:01.310Z,993.92
2018-01-30T05:41:57.929Z,993.90
2018-01-30T05:42:58.420Z,993.95
2018-01-30T05:43:58.392Z,993.92
2018-01-30T05:44:58.827Z,993.94
2018-01-30T05:45:58.257Z,993.96
2018-01-30T05:46:59.223Z,993.99
2018-01-30T05:47:58.182Z,994.02
2018-01-30T05:48:58.648Z,994.05
2018-01-30T05:49:58.069Z,994.06
2018-01-30T05:50:57.527Z,994.10
2018-01-30T05:51:57.975Z,994.10
2018-01-30T05:52:58.451Z,994.11
2018-01-30T05:53:57.894Z,994.14
2018-01-30T05:54:58.850Z,994.14
2018-01-30T05:55:57.800Z,994.11
2018-01-30T05:56:57.821Z,994.16
2018-01-30T05:57:57.210Z,994.14
2018-01-30T05:58:57.678Z,994.10
2018-01-30T05:59:57.633Z,994.16
2018-01-30T06:00:57.595Z,994.14
2018-01-30T06:01:58.066Z,994.26
2018-01-30T06:02:58.397Z,994.18
2018-01-30T06:03:58.319Z,994.23
2018-01-30T06:04:57.862Z,994.26
2018-01-30T06:05:58.330Z,994.23
2018-01-30T06:06:57.840Z,994.22
2018-01-30T06:07:58.347Z,994.18
2018-01-30T06:08:57.151Z,994.22
2018-01-30T06:09:57.682Z,994.15
2018-01-30T06:10:57.641Z,994.15
2018-01-30T06:11:57.318Z,994.20
2018-01-30T06:12:57.007Z,994.22
2018-01-30T06:13:57.840Z,994.21
2018-01-30T06:14:56.968Z,994.24
2018-01-30T06:15:56.922Z,994.28
2018-01-30T06:16:57.299Z,994.24
2018-01-30T06:17:56.765Z,994.30
2018-01-30T06:18:56.766Z,994.32
2018-01-30T06:19:56.720Z,994.34
2018-01-30T06:20:57.366Z,994.37
2018-01-30T06:21:56.058Z,994.40
2018-01-30T06:22:56.605Z,994.42
2018-01-30T06:23:57.341Z,994.42
2018-01-30T06:24:57.004Z,994.40
2018-01-30T06:25:57.611Z,994.45
2018-01-30T06:26:57.318Z,994.42
2018-01-30T06:27:56.332Z,994.43
2018-01-30T06:28:57.852Z,994.45
2018-01-30T06:29:56.770Z,994.49
2018-01-30T06:30:56.773Z,994.50
2018-01-30T06:31:56.712Z,994.46
2018-01-30T06:32:56.141Z,994.52
2018-01-30T06:33:56.621Z,994.48
2018-01-30T06:34:56.331Z,994.47
2018-01-30T06:35:55.980Z,994.51
2018-01-30T06:36:56.863Z,994.50
2018-01-30T06:37:57.022Z,994.47
2018-01-30T06:38:56.351Z,994.47
2018-01-30T06:39:56.328Z,994.48
2018-01-30T06:40:55.740Z,994.50
2018-01-30T06:41:55.746Z,994.46
2018-01-30T06:42:55.710Z,994.50
2018-01-30T06:43:55.846Z,994.53
2018-01-30T06:44:56.634Z,994.50
2018-01-30T06:45:56.345Z,994.54
2018-01-30T06:46:55.484Z,994.55
2018-01-30T06:47:56.524Z,994.51
2018-01-30T06:48:55.904Z,994.55
2018-01-30T06:49:55.347Z,994.53
2018-01-30T06:50:56.432Z,994.51
2018-01-30T06:51:54.746Z,994.52
2018-01-30T06:52:55.234Z,994.51
2018-01-30T06:53:55.176Z,994.51
2018-01-30T06:54:55.129Z,994.46
2018-01-30T06:55:55.329Z,994.49
2018-01-30T06:56:55.858Z,994.45
2018-01-30T06:57:56.119Z,994.44
2018-01-30T06:58:54.620Z,994.42
2018-01-30T06:59:54.391Z,994.48
2018-01-30T07:00:55.362Z,994.53
2018-01-30T07:01:55.350Z,994.51
2018-01-30T07:02:54.781Z,994.58
2018-01-30T07:03:54.858Z,994.59
2018-01-30T07:04:55.742Z,994.57
2018-01-30T07:05:54.626Z,994.58
2018-01-30T07:06:55.350Z,994.64
2018-01-30T07:07:54.551Z,994.65
2018-01-30T07:08:54.857Z,994.68
2018-01-30T07:09:55.517Z,994.70
2018-01-30T07:10:54.767Z,994.69
2018-01-30T07:11:53.841Z,994.72
2018-01-30T07:12:55.396Z,994.72
2018-01-30T07:13:53.762Z,994.78
2018-01-30T07:14:54.731Z,994.76
2018-01-30T07:15:54.872Z,994.80
2018-01-30T07:16:54.124Z,994.80
2018-01-30T07:17:54.385Z,994.85
2018-01-30T07:18:53.518Z,994.88
2018-01-30T07:19:55.059Z,994.94
2018-01-30T07:20:53.939Z,994.93
2018-01-30T07:21:54.962Z,994.95
2018-01-30T07:22:54.819Z,994.98
2018-01-30T07:23:53.800Z,994.98
2018-01-30T07:24:53.766Z,994.95
2018-01-30T07:25:53.719Z,994.94
2018-01-30T07:26:53.666Z,994.96
2018-01-30T07:27:53.860Z,994.99
2018-01-30T07:28:53.570Z,995.03
2018-01-30T07:29:53.528Z,995.05
2018-01-30T07:30:54.003Z,995.02
2018-01-30T07:31:54.307Z,995.02
2018-01-30T07:32:53.383Z,995.04
2018-01-30T07:33:53.831Z,995.08
2018-01-30T07:34:53.368Z,995.09
2018-01-30T07:35:52.740Z,995.12
2018-01-30T07:36:53.162Z,995.11
2018-01-30T07:37:53.689Z,995.11
2018-01-30T07:38:53.345Z,995.20
2018-01-30T07:39:54.113Z,995.27
2018-01-30T07:40:53.328Z,995.27
2018-01-30T07:41:52.979Z,995.27
2018-01-30T07:42:52.400Z,995.25
2018-01-30T07:43:53.878Z,995.30
2018-01-30T07:44:53.858Z,995.29
2018-01-30T07:45:53.301Z,995.31
2018-01-30T07:46:53.281Z,995.31
2018-01-30T07:47:52.841Z,995.32
2018-01-30T07:48:53.158Z,995.38
2018-01-30T07:49:53.345Z,995.40
2018-01-30T07:50:52.554Z,995.40
2018-01-30T07:51:52.514Z,995.41
2018-01-30T07:52:53.333Z,995.42
2018-01-30T07:53:52.759Z,995.47
2018-01-30T07:54:52.901Z,995.48
2018-01-30T07:55:54.998Z,995.48
2018-01-30T07:56:53.311Z,995.51
2018-01-30T07:57:52.776Z,995.52
2018-01-30T07:58:52.183Z,995.53
2018-01-30T07:59:52.670Z,995.50
2018-01-30T08:00:52.096Z,995.49
2018-01-30T08:01:53.196Z,995.51
2018-01-30T08:02:52.344Z,995.54
2018-01-30T08:03:52.321Z,995.53
2018-01-30T08:04:53.002Z,995.52
2018-01-30T08:05:52.381Z,995.49
2018-01-30T08:06:51.314Z,995.48
2018-01-30T08:07:51.753Z,995.49
2018-01-30T08:08:51.716Z,995.51
2018-01-30T08:09:52.223Z,995.54
2018-01-30T08:10:51.661Z,995.55
2018-01-30T08:11:52.372Z,995.56
2018-01-30T08:12:51.830Z,995.57
2018-01-30T08:13:51.839Z,995.57
2018-01-30T08:14:52.002Z,995.56
2018-01-30T08:15:51.440Z,995.53
2018-01-30T08:16:51.849Z,995.53
2018-01-30T08:17:50.815Z,995.52
2018-01-30T08:18:51.857Z,995.52
2018-01-30T08:19:51.873Z,995.54
2018-01-30T08:20:51.316Z,995.58
2018-01-30T08:21:51.676Z,995.60
2018-01-30T08:22:51.051Z,995.53
2018-01-30T08:23:51.375Z,995.57
2018-01-30T08:24:51.337Z,995.62
2018-01-30T08:25:51.514Z,995.63
2018-01-30T08:26:50.420Z,995.59
2018-01-30T08:27:50.888Z,995.61
2018-01-30T08:28:50.860Z,995.62
2018-01-30T08:29:50.284Z,995.64
2018-01-30T08:30:50.770Z,995.63
2018-01-30T08:31:51.777Z,995.70
2018-01-30T08:32:51.189Z,995.74
2018-01-30T08:33:51.347Z,995.75
2018-01-30T08:34:50.811Z,995.71
2018-01-30T08:35:50.350Z,995.77
2018-01-30T08:36:50.857Z,995.76
2018-01-30T08:37:50.161Z,995.73
2018-01-30T08:38:50.370Z,995.78
2018-01-30T08:39:51.485Z,995.81
2018-01-30T08:40:50.372Z,995.82
2018-01-30T08:41:50.223Z,995.84
2018-01-30T08:42:50.239Z,995.87
2018-01-30T08:43:50.287Z,995.91
2018-01-30T08:44:49.618Z,995.86
2018-01-30T08:45:50.112Z,995.91
2018-01-30T08:46:50.058Z,995.90
2018-01-30T08:47:50.001Z,995.90
2018-01-30T08:48:49.905Z,995.89
2018-01-30T08:49:49.954Z,995.78
2018-01-30T08:50:50.804Z,995.84
2018-01-30T08:51:49.871Z,995.83
2018-01-30T08:52:49.806Z,995.87
2018-01-30T08:53:49.243Z,995.86
2018-01-30T08:54:49.744Z,995.84
2018-01-30T08:55:50.205Z,995.86
2018-01-30T08:56:49.065Z,995.83
2018-01-30T08:57:49.056Z,995.80
2018-01-30T08:58:48.927Z,995.81
2018-01-30T08:59:49.020Z,995.82
2018-01-30T09:00:49.473Z,995.78
2018-01-30T09:01:49.848Z,995.84
2018-01-30T09:02:48.874Z,995.87
2018-01-30T09:03:49.339Z,995.86
2018-01-30T09:04:49.741Z,995.84
2018-01-30T09:05:48.755Z,995.88
2018-01-30T09:06:48.703Z,995.88
2018-01-30T09:07:48.701Z,995.82
2018-01-30T09:08:49.136Z,995.91
2018-01-30T09:09:48.467Z,995.93
2018-01-30T09:10:48.453Z,995.87
2018-01-30T09:11:48.424Z,995.89
2018-01-30T09:12:49.028Z,995.89
2018-01-30T09:13:48.053Z,995.88
2018-01-30T09:14:47.926Z,995.90
2018-01-30T09:15:47.872Z,995.89
2018-01-30T09:16:47.863Z,995.93
2018-01-30T09:17:47.809Z,995.94
2018-01-30T09:18:47.763Z,995.82
2018-01-30T09:19:47.737Z,995.85
2018-01-30T09:20:47.762Z,995.84
2018-01-30T09:21:47.676Z,995.88
2018-01-30T09:22:47.644Z,995.92
2018-01-30T09:23:47.599Z,996.00
2018-01-30T09:24:47.564Z,996.01
2018-01-30T09:25:47.535Z,996.00
2018-01-30T09:26:47.512Z,996.01
2018-01-30T09:27:47.501Z,996.02
2018-01-30T09:28:47.450Z,996.02
2018-01-30T09:29:47.408Z,996.09
2018-01-30T09:30:47.381Z,996.08
2018-01-30T09:31:47.352Z,996.09
2018-01-30T09:32:47.334Z,996.10
2018-01-30T09:33:47.302Z,996.10
2018-01-30T09:34:47.256Z,996.09
2018-01-30T09:35:47.223Z,996.11
2018-01-30T09:36:47.182Z,996.10
2018-01-30T09:37:47.174Z,996.15
2018-01-30T09:38:47.134Z,996.12
2018-01-30T09:39:47.089Z,996.11
2018-01-30T09:40:49.962Z,996.17
2018-01-30T09:41:47.026Z,996.15
2018-01-30T09:42:47.002Z,996.16
2018-01-30T09:43:46.994Z,996.18
2018-01-30T09:44:46.932Z,996.20
2018-01-30T09:45:46.914Z,996.19
2018-01-30T09:46:46.891Z,996.20
2018-01-30T09:47:46.878Z,996.22
2018-01-30T09:48:46.833Z,996.23
2018-01-30T09:49:46.787Z,996.14
2018-01-30T09:50:46.751Z,996.16
2018-01-30T09:51:46.736Z,996.15
2018-01-30T09:52:46.718Z,996.21
2018-01-30T09:53:46.672Z,996.16
2018-01-30T09:54:46.642Z,996.11
2018-01-30T09:55:46.633Z,996.04
2018-01-30T09:56:46.606Z,996.08
2018-01-30T09:57:46.586Z,996.11
2018-01-30T09:58:46.512Z,996.05
2018-01-30T09:59:46.486Z,996.02
2018-01-30T10:00:46.448Z,995.96
2018-01-30T10:01:46.434Z,996.02
2018-01-30T10:02:46.377Z,995.98
2018-01-30T10:03:46.347Z,996.06
2018-01-30T10:04:46.334Z,996.03
2018-01-30T10:05:46.291Z,996.01
2018-01-30T10:06:46.289Z,996.05
2018-01-30T10:07:46.214Z,996.06
2018-01-30T10:08:46.194Z,996.09
2018-01-30T10:09:46.157Z,996.09
2018-01-30T10:10:46.135Z,996.11
2018-01-30T10:11:46.128Z,996.10
2018-01-30T10:12:46.074Z,996.14
2018-01-30T10:13:46.044Z,996.12
2018-01-30T10:14:46.012Z,996.09
2018-01-30T10:15:45.984Z,996.20
2018-01-30T10:16:45.998Z,996.19
2018-01-30T10:17:45.917Z,996.18
2018-01-30T10:18:45.890Z,996.18
2018-01-30T10:19:45.858Z,996.19
2018-01-30T10:20:45.821Z,996.15
2018-01-30T10:21:45.792Z,996.16
2018-01-30T10:22:45.795Z,996.03
2018-01-30T10:23:45.732Z,996.13
2018-01-30T10:24:45.711Z,996.06
2018-01-30T10:25:45.681Z,996.07
2018-01-30T10:26:45.642Z,996.04
2018-01-30T10:27:45.618Z,996.05
2018-01-30T10:28:45.600Z,996.00
2018-01-30T10:29:45.571Z,995.96
2018-01-30T10:30:45.530Z,995.94
2018-01-30T10:31:45.496Z,995.92
2018-01-30T10:32:45.475Z,995.96
2018-01-30T10:33:45.429Z,995.99
2018-01-30T10:34:45.388Z,995.93
2018-01-30T10:35:45.342Z,995.93
2018-01-30T10:36:45.367Z,995.94
2018-01-30T10:37:45.284Z,995.95
2018-01-30T10:38:45.268Z,995.90
2018-01-30T10:39:45.251Z,995.96
2018-01-30T10:40:45.207Z,995.89
2018-01-30T10:41:45.162Z,995.95
2018-01-30T10:42:45.130Z,995.91
2018-01-30T10:43:45.095Z,995.88
2018-01-30T10:44:45.055Z,995.81
2018-01-30T10:45:45.056Z,995.85
2018-01-30T10:46:45.031Z,995.77
2018-01-30T10:47:44.988Z,995.75
2018-01-30T10:48:44.940Z,995.75
2018-01-30T10:49:44.917Z,995.77
2018-01-30T10:50:44.880Z,995.76
2018-01-30T10:51:44.844Z,995.79
2018-01-30T10:52:44.802Z,995.84
2018-01-30T10:53:44.768Z,995.80
2018-01-30T10:54:44.748Z,995.76
2018-01-30T10:55:44.696Z,995.73
2018-01-30T10:56:44.659Z,995.70
2018-01-30T10:57:44.625Z,995.67
2018-01-30T10:58:44.636Z,995.72
2018-01-30T10:59:44.556Z,995.70
2018-01-30T11:00:44.548Z,995.72
2018-01-30T11:01:44.501Z,995.71
2018-01-30T11:02:44.451Z,995.71
2018-01-30T11:03:44.418Z,995.74
2018-01-30T11:04:44.391Z,995.67
2018-01-30T11:05:44.361Z,995.64
2018-01-30T11:06:44.314Z,995.57
2018-01-30T11:07:44.286Z,995.64
2018-01-30T11:08:44.255Z,995.57
2018-01-30T11:09:44.227Z,995.62
2018-01-30T11:10:44.196Z,995.63
2018-01-30T11:11:44.165Z,995.60
2018-01-30T11:12:44.163Z,995.54
2018-01-30T11:13:44.099Z,995.52
2018-01-30T11:14:44.061Z,995.50
2018-01-30T11:15:44.024Z,995.52
2018-01-30T11:16:44.031Z,995.51
2018-01-30T11:17:43.948Z,995.51
2018-01-30T11:18:43.920Z,995.46
2018-01-30T11:19:43.897Z,995.43
2018-01-30T11:20:43.878Z,995.42
2018-01-30T11:21:43.833Z,995.45
2018-01-30T11:22:43.800Z,995.42
2018-01-30T11:23:43.777Z,995.43
2018-01-30T11:24:43.813Z,995.42
2018-01-30T11:25:43.691Z,995.42
2018-01-30T11:26:43.667Z,995.41
2018-01-30T11:27:43.638Z,995.35
2018-01-30T11:28:43.627Z,995.43
2018-01-30T11:29:43.578Z,995.37
2018-01-30T11:30:43.541Z,995.40
2018-01-30T11:31:43.515Z,995.35
2018-01-30T11:32:43.499Z,995.35
2018-01-30T11:33:43.447Z,995.33
2018-01-30T11:34:43.420Z,995.32
2018-01-30T11:35:43.385Z,995.29
2018-01-30T11:36:43.350Z,995.24
2018-01-30T11:37:43.327Z,995.28
2018-01-30T11:38:43.301Z,995.29
2018-01-30T11:39:43.257Z,995.29
2018-01-30T11:40:43.238Z,995.32
2018-01-30T11:41:43.215Z,995.31
2018-01-30T11:42:43.172Z,995.33
2018-01-30T11:43:43.160Z,995.25
2018-01-30T11:44:43.108Z,995.29
2018-01-30T11:45:43.081Z,995.27
2018-01-30T11:46:43.048Z,995.26
2018-01-30T11:47:43.017Z,995.27
2018-01-30T11:48:43.003Z,995.32
2018-01-30T11:49:42.967Z,995.26
2018-01-30T11:50:42.931Z,995.24
2018-01-30T11:51:42.926Z,995.28
2018-01-30T11:52:42.876Z,995.26
2018-01-30T11:53:42.847Z,995.15
2018-01-30T11:54:42.816Z,995.14
2018-01-30T11:55:42.783Z,995.11
2018-01-30T11:56:42.752Z,995.11
2018-01-30T11:57:42.705Z,995.10
2018-01-30T11:58:42.685Z,995.02
2018-01-30T11:59:42.656Z,995.00
2018-01-30T12:00:42.615Z,994.96
2018-01-30T12:01:42.578Z,994.91
2018-01-30T12:02:42.550Z,994.90
2018-01-30T12:03:42.530Z,994.93
2018-01-30T12:04:42.501Z,994.94
2018-01-30T12:05:42.453Z,994.90
2018-01-30T12:06:42.435Z,994.81
2018-01-30T12:07:42.429Z,994.83
2018-01-30T12:08:42.345Z,994.82
2018-01-30T12:09:42.327Z,994.78
2018-01-30T12:10:42.283Z,994.76
2018-01-30T12:11:42.247Z,994.79
2018-01-30T12:12:42.324Z,994.79
2018-01-30T12:13:42.192Z,994.83
2018-01-30T12:14:42.176Z,994.78
2018-01-30T12:15:42.135Z,994.75
2018-01-30T12:16:42.085Z,994.70
2018-01-30T12:17:42.123Z,994.71
2018-01-30T12:18:42.029Z,994.76
2018-01-30T12:19:42.013Z,994.82
2018-01-30T12:20:42.000Z,994.82
2018-01-30T12:21:41.954Z,994.80
2018-01-30T12:22:41.911Z,994.87
2018-01-30T12:23:41.868Z,994.83
2018-01-30T12:24:41.846Z,994.76
2018-01-30T12:25:41.815Z,994.74
2018-01-30T12:26:41.780Z,994.75
2018-01-30T12:27:41.816Z,994.71
2018-01-30T12:28:41.725Z,994.73
2018-01-30T12:29:41.691Z,994.72
2018-01-30T12:30:41.668Z,994.71
2018-01-30T12:31:41.674Z,994.70
2018-01-30T12:32:41.612Z,994.69
2018-01-30T12:33:41.575Z,994.76
2018-01-30T12:34:41.548Z,994.79
2018-01-30T12:35:41.550Z,994.82
2018-01-30T12:36:41.492Z,994.82
2018-01-30T12:37:41.454Z,994.84
2018-01-30T12:38:41.421Z,994.80
2018-01-30T12:39:41.392Z,994.81
2018-01-30T12:40:41.388Z,994.79
2018-01-30T12:41:41.337Z,994.79
2018-01-30T12:42:41.334Z,994.80
2018-01-30T12:43:41.277Z,994.79
2018-01-30T12:44:41.253Z,994.75
2018-01-30T12:45:41.228Z,994.75
2018-01-30T12:46:41.184Z,994.74
2018-01-30T12:47:41.151Z,994.73
2018-01-30T12:48:41.129Z,994.74
2018-01-30T12:49:41.088Z,994.72
2018-01-30T12:50:41.131Z,994.74
2018-01-30T12:51:41.048Z,994.73
2018-01-30T12:52:40.995Z,994.74
2018-01-30T12:53:41.082Z,994.71
2018-01-30T12:54:40.943Z,994.77
2018-01-30T12:55:40.909Z,994.76
2018-01-30T12:56:40.913Z,994.76
2018-01-30T12:57:40.846Z,994.72
2018-01-30T12:58:40.818Z,994.67
2018-01-30T12:59:40.784Z,994.66
2018-01-30T13:00:42.560Z,994.65
2018-01-30T13:01:40.757Z,994.64
2018-01-30T13:02:40.727Z,994.68
2018-01-30T13:03:40.656Z,994.64
2018-01-30T13:04:40.674Z,994.66
2018-01-30T13:05:40.607Z,994.61
2018-01-30T13:06:40.567Z,994.62
2018-01-30T13:07:40.525Z,994.62
2018-01-30T13:08:40.495Z,994.66
2018-01-30T13:09:40.481Z,994.68
2018-01-30T13:10:40.459Z,994.65
2018-01-30T13:11:40.407Z,994.63
2018-01-30T13:12:40.375Z,994.64
2018-01-30T13:13:40.346Z,994.68
2018-01-30T13:14:40.337Z,994.66
2018-01-30T13:15:40.290Z,994.59
2018-01-30T13:16:40.264Z,994.62
2018-01-30T13:17:40.220Z,994.62
2018-01-30T13:18:40.182Z,994.61
2018-01-30T13:19:40.149Z,994.58
2018-01-30T13:20:40.111Z,994.68
2018-01-30T13:21:40.085Z,994.66
2018-01-30T13:22:40.052Z,994.62
2018-01-30T13:23:40.058Z,994.67
2018-01-30T13:24:39.987Z,994.63
2018-01-30T13:25:39.952Z,994.64
2018-01-30T13:26:39.925Z,994.68
2018-01-30T13:27:39.905Z,994.71
2018-01-30T13:28:39.851Z,994.70
2018-01-30T13:29:39.816Z,994.73